Resums METAR propers

 

LEGE - Gerona/Costa Bra, Spain
DistÓncia des de l'estaciˇ: S 12km
Actualitzaciˇ: 26/11/2020 19:00
Parcialment cobert
Parcialment cobert
 Vent del NNE
Vent: NNE 7 km/h
Temperatura: 55°F , 13°C
Rosada: 54°F , 12°C
Humitat: 94%
Bar˛metre: 1018 hPa
Nuvolositat: Parcialment cobert
Visibilitat: 8 km
Detalls nuvolositat: Alguns n˙vols 900 ft
Parcialment cobert 5000 ft
2020/11/26 18:00 LEGE 261800Z 02004KT 8000 FEW009 SCT050 13/12 Q1018